地図

経路データ

SID SEASON NUMBER BASIN SUBBASIN NAME ISO_TIME NATURE LAT LON WMO_WIND WMO_PRES WMO_AGENCY TRACK_TYPE DIST2LAND LANDFALL IFLAG USA_AGENCY USA_ATCF_ID USA_LAT USA_LON USA_RECORD USA_STATUS USA_WIND USA_PRES USA_SSHS USA_R34_NE USA_R34_SE USA_R34_SW USA_R34_NW USA_R50_NE USA_R50_SE USA_R50_SW USA_R50_NW USA_R64_NE USA_R64_SE USA_R64_SW USA_R64_NW USA_POCI USA_ROCI USA_RMW USA_EYE TOKYO_LAT TOKYO_LON TOKYO_GRADE TOKYO_WIND TOKYO_PRES TOKYO_R50_DIR TOKYO_R50_LONG TOKYO_R50_SHORT TOKYO_R30_DIR TOKYO_R30_LONG TOKYO_R30_SHORT TOKYO_LAND CMA_LAT CMA_LON CMA_CAT CMA_WIND CMA_PRES HKO_LAT HKO_LON HKO_CAT HKO_WIND HKO_PRES NEWDELHI_LAT NEWDELHI_LON NEWDELHI_GRADE NEWDELHI_WIND NEWDELHI_PRES NEWDELHI_CI NEWDELHI_DP NEWDELHI_POCI REUNION_LAT REUNION_LON REUNION_TYPE REUNION_WIND REUNION_PRES REUNION_TNUM REUNION_CI REUNION_RMW REUNION_R34_NE REUNION_R34_SE REUNION_R34_SW REUNION_R34_NW REUNION_R50_NE REUNION_R50_SE REUNION_R50_SW REUNION_R50_NW REUNION_R64_NE REUNION_R64_SE REUNION_R64_SW REUNION_R64_NW BOM_LAT BOM_LON BOM_TYPE BOM_WIND BOM_PRES BOM_TNUM BOM_CI BOM_RMW BOM_R34_NE BOM_R34_SE BOM_R34_SW BOM_R34_NW BOM_R50_NE BOM_R50_SE BOM_R50_SW BOM_R50_NW BOM_R64_NE BOM_R64_SE BOM_R64_SW BOM_R64_NW BOM_ROCI BOM_POCI BOM_EYE BOM_POS_METHOD BOM_PRES_METHOD NADI_LAT NADI_LON NADI_CAT NADI_WIND NADI_PRES WELLINGTON_LAT WELLINGTON_LON WELLINGTON_WIND WELLINGTON_PRES DS824_LAT DS824_LON DS824_STAGE DS824_WIND DS824_PRES TD9636_LAT TD9636_LON TD9636_STAGE TD9636_WIND TD9636_PRES TD9635_LAT TD9635_LON TD9635_WIND TD9635_PRES TD9635_ROCI NEUMANN_LAT NEUMANN_LON NEUMANN_CLASS NEUMANN_WIND NEUMANN_PRES MLC_LAT MLC_LON MLC_CLASS MLC_WIND MLC_PRES USA_GUST BOM_GUST BOM_GUST_PER REUNION_GUST REUNION_GUST_PER USA_SEAHGT USA_SEARAD_NE USA_SEARAD_SE USA_SEARAD_SW USA_SEARAD_NW STORM_SPEED STORM_DIR
1925057S17120 1925 14 SI WA NOT_NAMED 1925-02-25 23:00:00 NR -16.5000 120.200 main 230 230 __________O___ -1 -16.5000 120.200 7 2 227
1925057S17120 1925 14 SI WA NOT_NAMED 1925-02-26 00:00:00 NR -16.5270 120.167 main 230 230 __________P___ -1 -16.5270 120.167 7 2 232
1925057S17120 1925 14 SI WA NOT_NAMED 1925-02-26 03:00:00 NR -16.5967 120.069 main 236 236 __________P___ -1 -16.5967 120.069 7 2 242
1925057S17120 1925 14 SI WA NOT_NAMED 1925-02-26 06:00:00 NR -16.6256 119.970 main 246 246 __________P___ -1 -16.6256 119.970 7 2 274
1925057S17120 1925 14 SI WA NOT_NAMED 1925-02-26 09:00:00 NR -16.5831 119.869 main 256 256 __________P___ -1 -16.5831 119.869 7 2 308
1925057S17120 1925 14 SI WA NOT_NAMED 1925-02-26 11:00:00 NR -16.5000 119.800 main 270 270 __________O___ -1 -16.5000 119.800 7 4 326
1925057S17120 1925 14 SI WA NOT_NAMED 1925-02-26 12:00:00 NR -16.4398 119.765 main 274 274 __________P___ -1 -16.4398 119.765 7 4 333
1925057S17120 1925 14 SI WA NOT_NAMED 1925-02-26 15:00:00 NR -16.2380 119.660 main 293 293 __________P___ -1 -16.2380 119.660 7 4 328
1925057S17120 1925 14 SI WA NOT_NAMED 1925-02-26 18:00:00 NR -16.1302 119.558 main 307 307 __________P___ -1 -16.1302 119.558 7 2 258
1925057S17120 1925 14 SI WA NOT_NAMED 1925-02-26 21:00:00 NR -16.2786 119.460 main 308 308 __________P___ -1 -16.2786 119.460 7 6 198
1925057S17120 1925 14 SI WA NOT_NAMED 1925-02-26 23:00:00 NR -16.6000 119.400 main 308 300 __________O___ -1 -16.6000 119.400 7 12 186
1925057S17120 1925 14 SI WA NOT_NAMED 1925-02-27 00:00:00 NR -16.8724 119.395 main 297 238 __________P___ -1 -16.8724 119.395 7 21 181
1925057S17120 1925 14 SI WA NOT_NAMED 1925-02-27 03:00:00 NR -17.9817 119.394 main 227 88 __________P___ -1 -17.9817 119.394 7 25 0
1925057S17120 1925 14 SI WA NOT_NAMED 1925-02-27 06:00:00 NR -19.4000 119.369 main 78 0 __________P___ -1 -19.4000 119.369 7 30 183
1925057S17120 1925 14 SI WA NOT_NAMED 1925-02-27 09:00:00 NR -20.9614 119.256 main 0 0 __________P___ -1 -20.9614 119.256 7 32 185
1925057S17120 1925 14 SI WA NOT_NAMED 1925-02-27 11:00:00 NR -22.0000 119.100 main 0 0 __________O___ -1 -22.0000 119.100 7 31 189
1925057S17120 1925 14 SI WA NOT_NAMED 1925-02-27 12:00:00 NR -22.5016 118.991 main 0 0 __________P___ -1 -22.5016 118.991 7 30 195
1925057S17120 1925 14 SI WA NOT_NAMED 1925-02-27 15:00:00 NR -23.9312 118.548 main 0 0 __________P___ -1 -23.9312 118.548 7 29 199
1925057S17120 1925 14 SI WA NOT_NAMED 1925-02-27 18:00:00 NR -25.2731 117.963 main 0 0 __________P___ -1 -25.2731 117.963 7 29 204
1925057S17120 1925 14 SI WA NOT_NAMED 1925-02-27 21:00:00 NR -26.5588 117.283 main 0 0 __________P___ -1 -26.5588 117.283 7 29 206
1925057S17120 1925 14 SI WA NOT_NAMED 1925-02-27 23:00:00 NR -27.4000 116.800 main 0 __________O___ -1 -27.4000 116.800 7 28 207

IBTrACS Databaseについて

本データベースは、米国NOAAが公開する1842年以降の世界の熱帯低気圧のベストトラックデータアーカイブInternational Best Track Archive for Climate Stewardship (IBTrACS)を、ウェブで閲覧しやすい形式に変換したものです。

最終更新日:2021-12-03